sensor_id;sensor_type;location;lat;lon;timestamp;pressure;altitude;pressure_sealevel;temperature;humidity
43814;BME280;29669;55.706;37.656;2023-10-13T00:01:35;98570.75;;;10.59;67.48
43814;BME280;29669;55.706;37.656;2023-10-13T00:04:03;98576.50;;;10.55;67.63
43814;BME280;29669;55.706;37.656;2023-10-13T00:06:33;98579.22;;;10.47;67.61
43814;BME280;29669;55.706;37.656;2023-10-13T00:09:00;98578.81;;;10.43;67.93
43814;BME280;29669;55.706;37.656;2023-10-13T00:11:28;98588.22;;;10.44;67.85
43814;BME280;29669;55.706;37.656;2023-10-13T00:13:56;98583.03;;;10.44;67.97
43814;BME280;29669;55.706;37.656;2023-10-13T00:16:23;98585.63;;;10.44;67.81
43814;BME280;29669;55.706;37.656;2023-10-13T00:18:56;98594.38;;;10.43;67.82
43814;BME280;29669;55.706;37.656;2023-10-13T00:21:26;98600.72;;;10.34;67.72
43814;BME280;29669;55.706;37.656;2023-10-13T00:24:00;98589.31;;;10.28;67.81
43814;BME280;29669;55.706;37.656;2023-10-13T00:26:33;98589.84;;;10.24;68.03
43814;BME280;29669;55.706;37.656;2023-10-13T00:29:05;98602.66;;;10.25;68.10
43814;BME280;29669;55.706;37.656;2023-10-13T00:31:37;98602.22;;;10.22;68.02
43814;BME280;29669;55.706;37.656;2023-10-13T00:34:12;98594.44;;;10.22;68.08
43814;BME280;29669;55.706;37.656;2023-10-13T00:36:47;98600.81;;;10.19;68.04
43814;BME280;29669;55.706;37.656;2023-10-13T00:39:35;98592.66;;;10.22;68.37
43814;BME280;29669;55.706;37.656;2023-10-13T00:42:13;98603.81;;;10.23;67.92
43814;BME280;29669;55.706;37.656;2023-10-13T00:44:51;98609.41;;;10.20;67.95
43814;BME280;29669;55.706;37.656;2023-10-13T00:47:22;98608.00;;;10.24;68.23
43814;BME280;29669;55.706;37.656;2023-10-13T00:50:13;98605.88;;;10.27;68.17
43814;BME280;29669;55.706;37.656;2023-10-13T00:52:44;98611.84;;;10.28;68.01
43814;BME280;29669;55.706;37.656;2023-10-13T00:55:14;98605.28;;;10.32;68.08
43814;BME280;29669;55.706;37.656;2023-10-13T00:57:46;98602.94;;;10.37;67.91
43814;BME280;29669;55.706;37.656;2023-10-13T01:00:14;98616.34;;;10.40;67.97
43814;BME280;29669;55.706;37.656;2023-10-13T01:02:53;98613.97;;;10.46;67.87
43814;BME280;29669;55.706;37.656;2023-10-13T01:05:25;98617.38;;;10.53;67.66
43814;BME280;29669;55.706;37.656;2023-10-13T01:07:53;98625.84;;;10.61;67.54
43814;BME280;29669;55.706;37.656;2023-10-13T01:10:23;98618.06;;;10.68;67.38
43814;BME280;29669;55.706;37.656;2023-10-13T01:12:55;98629.13;;;10.76;67.16
43814;BME280;29669;55.706;37.656;2023-10-13T01:15:23;98626.53;;;10.83;67.01
43814;BME280;29669;55.706;37.656;2023-10-13T01:18:11;98620.22;;;10.92;66.90
43814;BME280;29669;55.706;37.656;2023-10-13T01:20:40;98630.59;;;10.92;66.56
43814;BME280;29669;55.706;37.656;2023-10-13T01:23:19;98630.41;;;10.93;66.55
43814;BME280;29669;55.706;37.656;2023-10-13T01:25:51;98623.22;;;10.95;66.41
43814;BME280;29669;55.706;37.656;2023-10-13T01:28:22;98629.41;;;10.94;66.37
43814;BME280;29669;55.706;37.656;2023-10-13T01:30:51;98624.22;;;10.94;66.38
43814;BME280;29669;55.706;37.656;2023-10-13T01:33:20;98631.38;;;10.92;66.27
43814;BME280;29669;55.706;37.656;2023-10-13T01:35:55;98634.38;;;10.89;66.26
43814;BME280;29669;55.706;37.656;2023-10-13T01:38:26;98648.16;;;10.90;66.31
43814;BME280;29669;55.706;37.656;2023-10-13T01:40:54;98631.97;;;10.88;66.19
43814;BME280;29669;55.706;37.656;2023-10-13T01:43:25;98637.53;;;10.85;66.30
43814;BME280;29669;55.706;37.656;2023-10-13T01:45:52;98637.75;;;10.83;66.35
43814;BME280;29669;55.706;37.656;2023-10-13T01:48:21;98637.94;;;10.82;66.41
43814;BME280;29669;55.706;37.656;2023-10-13T01:50:49;98649.28;;;10.81;66.31
43814;BME280;29669;55.706;37.656;2023-10-13T01:53:24;98650.72;;;10.83;66.39
43814;BME280;29669;55.706;37.656;2023-10-13T01:55:51;98652.69;;;10.81;66.28
43814;BME280;29669;55.706;37.656;2023-10-13T01:58:21;98663.69;;;10.83;66.40
43814;BME280;29669;55.706;37.656;2023-10-13T02:00:51;98653.13;;;10.85;66.32
43814;BME280;29669;55.706;37.656;2023-10-13T02:03:20;98648.50;;;10.80;66.28
43814;BME280;29669;55.706;37.656;2023-10-13T02:05:49;98637.28;;;10.73;66.53
43814;BME280;29669;55.706;37.656;2023-10-13T02:08:21;98646.88;;;10.73;66.51
43814;BME280;29669;55.706;37.656;2023-10-13T02:10:57;98648.59;;;10.66;66.52
43814;BME280;29669;55.706;37.656;2023-10-13T02:13:25;98655.75;;;10.57;66.78
43814;BME280;29669;55.706;37.656;2023-10-13T02:15:56;98672.47;;;10.48;66.87
43814;BME280;29669;55.706;37.656;2023-10-13T02:18:26;98662.03;;;10.41;66.91
43814;BME280;29669;55.706;37.656;2023-10-13T02:20:56;98674.38;;;10.39;67.11
43814;BME280;29669;55.706;37.656;2023-10-13T02:23:31;98661.72;;;10.30;67.00
43814;BME280;29669;55.706;37.656;2023-10-13T02:26:02;98678.22;;;10.22;67.08
43814;BME280;29669;55.706;37.656;2023-10-13T02:28:40;98673.97;;;10.15;67.31
43814;BME280;29669;55.706;37.656;2023-10-13T02:31:07;98665.75;;;10.11;67.34
43814;BME280;29669;55.706;37.656;2023-10-13T02:33:35;98680.69;;;10.09;67.46
43814;BME280;29669;55.706;37.656;2023-10-13T02:36:12;98671.47;;;10.07;67.36
43814;BME280;29669;55.706;37.656;2023-10-13T02:38:40;98683.91;;;10.11;67.61
43814;BME280;29669;55.706;37.656;2023-10-13T02:41:11;98688.78;;;10.21;67.42
43814;BME280;29669;55.706;37.656;2023-10-13T02:43:39;98691.25;;;10.29;67.27
43814;BME280;29669;55.706;37.656;2023-10-13T02:46:07;98690.31;;;10.36;66.97
43814;BME280;29669;55.706;37.656;2023-10-13T02:48:34;98692.34;;;10.41;66.99
43814;BME280;29669;55.706;37.656;2023-10-13T02:51:08;98703.31;;;10.43;66.88
43814;BME280;29669;55.706;37.656;2023-10-13T02:53:46;98706.31;;;10.40;66.98
43814;BME280;29669;55.706;37.656;2023-10-13T02:56:17;98699.50;;;10.39;66.90
43814;BME280;29669;55.706;37.656;2023-10-13T02:58:52;98704.53;;;10.40;66.72
43814;BME280;29669;55.706;37.656;2023-10-13T03:01:33;98709.28;;;10.37;66.81
43814;BME280;29669;55.706;37.656;2023-10-13T03:04:04;98711.88;;;10.37;66.70
43814;BME280;29669;55.706;37.656;2023-10-13T03:06:36;98708.06;;;10.33;66.82
43814;BME280;29669;55.706;37.656;2023-10-13T03:09:09;98719.59;;;10.30;67.07
43814;BME280;29669;55.706;37.656;2023-10-13T03:11:49;98708.84;;;10.33;66.93
43814;BME280;29669;55.706;37.656;2023-10-13T03:14:22;98726.44;;;10.38;66.77
43814;BME280;29669;55.706;37.656;2023-10-13T03:17:01;98723.72;;;10.46;66.69
43814;BME280;29669;55.706;37.656;2023-10-13T03:19:46;98717.41;;;10.55;66.56
43814;BME280;29669;55.706;37.656;2023-10-13T03:22:18;98729.22;;;10.58;66.26
43814;BME280;29669;55.706;37.656;2023-10-13T03:24:46;98723.44;;;10.62;66.27
43814;BME280;29669;55.706;37.656;2023-10-13T03:27:18;98717.09;;;10.65;66.12
43814;BME280;29669;55.706;37.656;2023-10-13T03:29:50;98719.38;;;10.53;65.90
43814;BME280;29669;55.706;37.656;2023-10-13T03:32:30;98730.41;;;10.34;66.03
43814;BME280;29669;55.706;37.656;2023-10-13T03:34:58;98733.50;;;10.23;66.19
43814;BME280;29669;55.706;37.656;2023-10-13T03:37:30;98731.00;;;10.15;66.36
43814;BME280;29669;55.706;37.656;2023-10-13T03:40:12;98734.50;;;10.07;66.43
43814;BME280;29669;55.706;37.656;2023-10-13T03:42:53;98740.06;;;10.04;66.61
43814;BME280;29669;55.706;37.656;2023-10-13T03:45:41;98727.09;;;10.04;66.49
43814;BME280;29669;55.706;37.656;2023-10-13T03:48:14;98737.28;;;10.06;66.52
43814;BME280;29669;55.706;37.656;2023-10-13T03:50:57;98745.25;;;10.04;66.36
43814;BME280;29669;55.706;37.656;2023-10-13T03:53:34;98754.81;;;10.04;66.43
43814;BME280;29669;55.706;37.656;2023-10-13T03:56:04;98756.34;;;9.98;66.37
43814;BME280;29669;55.706;37.656;2023-10-13T03:58:40;98775.41;;;9.91;66.49
43814;BME280;29669;55.706;37.656;2023-10-13T04:01:14;98760.22;;;9.88;66.66
43814;BME280;29669;55.706;37.656;2023-10-13T04:03:45;98782.13;;;9.85;66.71
43814;BME280;29669;55.706;37.656;2023-10-13T04:06:31;98773.78;;;9.90;66.56
43814;BME280;29669;55.706;37.656;2023-10-13T04:09:22;98791.47;;;10.01;66.59
43814;BME280;29669;55.706;37.656;2023-10-13T04:12:04;98807.63;;;10.17;66.41
43814;BME280;29669;55.706;37.656;2023-10-13T04:14:35;98808.94;;;10.28;66.04
43814;BME280;29669;55.706;37.656;2023-10-13T04:17:22;98814.41;;;10.33;65.67
43814;BME280;29669;55.706;37.656;2023-10-13T04:19:55;98799.69;;;10.19;65.46
43814;BME280;29669;55.706;37.656;2023-10-13T04:25:27;98803.44;;;10.02;65.65
43814;BME280;29669;55.706;37.656;2023-10-13T04:28:12;98801.47;;;10.04;65.99
43814;BME280;29669;55.706;37.656;2023-10-13T04:30:50;98827.22;;;10.20;66.18
43814;BME280;29669;55.706;37.656;2023-10-13T04:33:29;98817.97;;;10.32;65.74
43814;BME280;29669;55.706;37.656;2023-10-13T04:36:18;98830.44;;;10.43;65.53
43814;BME280;29669;55.706;37.656;2023-10-13T04:38:58;98828.97;;;10.55;65.49
43814;BME280;29669;55.706;37.656;2023-10-13T04:41:35;98839.59;;;10.60;65.17
43814;BME280;29669;55.706;37.656;2023-10-13T04:44:17;98835.22;;;10.61;65.03
43814;BME280;29669;55.706;37.656;2023-10-13T04:47:03;98842.75;;;10.56;64.87
43814;BME280;29669;55.706;37.656;2023-10-13T04:49:31;98860.50;;;10.52;64.87
43814;BME280;29669;55.706;37.656;2023-10-13T04:52:04;98861.56;;;10.43;65.03
43814;BME280;29669;55.706;37.656;2023-10-13T04:54:44;98871.69;;;10.38;64.95
43814;BME280;29669;55.706;37.656;2023-10-13T04:57:23;98877.19;;;10.28;65.05
43814;BME280;29669;55.706;37.656;2023-10-13T05:00:03;98874.34;;;10.23;65.04
43814;BME280;29669;55.706;37.656;2023-10-13T05:02:34;98866.72;;;10.22;65.01
43814;BME280;29669;55.706;37.656;2023-10-13T05:05:12;98876.81;;;10.31;64.79
43814;BME280;29669;55.706;37.656;2023-10-13T05:07:52;98882.94;;;10.45;64.83
43814;BME280;29669;55.706;37.656;2023-10-13T05:10:38;98874.75;;;10.63;64.49
43814;BME280;29669;55.706;37.656;2023-10-13T05:13:28;98882.44;;;10.71;63.97
43814;BME280;29669;55.706;37.656;2023-10-13T05:16:14;98905.06;;;10.77;63.82
43814;BME280;29669;55.706;37.656;2023-10-13T05:19:02;98893.75;;;10.84;63.75
43814;BME280;29669;55.706;37.656;2023-10-13T05:21:48;98897.09;;;10.99;63.55
43814;BME280;29669;55.706;37.656;2023-10-13T05:24:35;98893.59;;;11.13;63.09
43814;BME280;29669;55.706;37.656;2023-10-13T05:27:20;98906.69;;;11.26;62.91
43814;BME280;29669;55.706;37.656;2023-10-13T05:30:07;98902.09;;;11.28;62.72
43814;BME280;29669;55.706;37.656;2023-10-13T05:32:53;98902.84;;;11.22;62.45
43814;BME280;29669;55.706;37.656;2023-10-13T05:35:40;98933.66;;;11.25;62.32
43814;BME280;29669;55.706;37.656;2023-10-13T05:38:28;98928.34;;;11.33;62.39
43814;BME280;29669;55.706;37.656;2023-10-13T05:41:14;98930.66;;;11.50;61.96
43814;BME280;29669;55.706;37.656;2023-10-13T05:44:00;98945.84;;;11.53;61.70
43814;BME280;29669;55.706;37.656;2023-10-13T05:46:46;98950.28;;;11.52;61.49
43814;BME280;29669;55.706;37.656;2023-10-13T05:49:17;98963.44;;;11.51;61.56
43814;BME280;29669;55.706;37.656;2023-10-13T05:51:44;98948.78;;;11.43;61.37
43814;BME280;29669;55.706;37.656;2023-10-13T05:54:25;98966.53;;;11.39;60.96
43814;BME280;29669;55.706;37.656;2023-10-13T05:57:11;98971.38;;;11.43;60.95
43814;BME280;29669;55.706;37.656;2023-10-13T05:59:57;98956.56;;;11.43;60.43
43814;BME280;29669;55.706;37.656;2023-10-13T06:03:03;98963.81;;;11.48;60.48
43814;BME280;29669;55.706;37.656;2023-10-13T06:05:50;98988.88;;;11.55;60.24
43814;BME280;29669;55.706;37.656;2023-10-13T06:08:36;98976.91;;;11.61;59.92
43814;BME280;29669;55.706;37.656;2023-10-13T06:11:22;98976.91;;;11.61;60.11
43814;BME280;29669;55.706;37.656;2023-10-13T06:14:08;99000.06;;;11.56;59.54
43814;BME280;29669;55.706;37.656;2023-10-13T06:16:54;98994.44;;;11.52;59.29
43814;BME280;29669;55.706;37.656;2023-10-13T06:19:40;98992.00;;;11.51;58.78
43814;BME280;29669;55.706;37.656;2023-10-13T06:22:27;98988.56;;;11.44;58.59
43814;BME280;29669;55.706;37.656;2023-10-13T06:25:13;99015.59;;;11.49;58.64
43814;BME280;29669;55.706;37.656;2023-10-13T06:27:59;98999.06;;;11.57;58.66
43814;BME280;29669;55.706;37.656;2023-10-13T06:30:57;99001.25;;;11.74;58.59
43814;BME280;29669;55.706;37.656;2023-10-13T06:33:25;99021.09;;;11.82;58.24
43814;BME280;29669;55.706;37.656;2023-10-13T06:35:57;99007.50;;;11.80;57.90
43814;BME280;29669;55.706;37.656;2023-10-13T06:38:25;99028.09;;;11.81;57.75
43814;BME280;29669;55.706;37.656;2023-10-13T06:40:58;99002.91;;;11.82;57.39
43814;BME280;29669;55.706;37.656;2023-10-13T06:43:25;99022.53;;;11.84;57.24
43814;BME280;29669;55.706;37.656;2023-10-13T06:46:00;99035.75;;;11.89;57.11
43814;BME280;29669;55.706;37.656;2023-10-13T06:48:28;99026.69;;;12.06;56.89
43814;BME280;29669;55.706;37.656;2023-10-13T06:51:01;99037.94;;;12.13;56.64
43814;BME280;29669;55.706;37.656;2023-10-13T06:53:39;99040.63;;;11.99;56.23
43814;BME280;29669;55.706;37.656;2023-10-13T06:56:17;99047.31;;;11.80;56.24
43814;BME280;29669;55.706;37.656;2023-10-13T06:58:55;99045.09;;;11.63;56.25
43814;BME280;29669;55.706;37.656;2023-10-13T07:01:32;99062.19;;;11.51;56.06
43814;BME280;29669;55.706;37.656;2023-10-13T07:04:07;99071.38;;;11.47;56.11
43814;BME280;29669;55.706;37.656;2023-10-13T07:06:41;99050.56;;;11.47;55.91
43814;BME280;29669;55.706;37.656;2023-10-13T07:09:16;99066.84;;;11.55;55.56
43814;BME280;29669;55.706;37.656;2023-10-13T07:12:16;99066.53;;;11.86;55.65
43814;BME280;29669;55.706;37.656;2023-10-13T07:14:48;99065.97;;;12.18;54.71
43814;BME280;29669;55.706;37.656;2023-10-13T07:17:20;99083.75;;;12.42;54.17
43814;BME280;29669;55.706;37.656;2023-10-13T07:19:54;99086.34;;;12.42;53.52
43814;BME280;29669;55.706;37.656;2023-10-13T07:22:42;99090.91;;;12.34;53.47
43814;BME280;29669;55.706;37.656;2023-10-13T07:25:25;99094.06;;;12.29;53.16
43814;BME280;29669;55.706;37.656;2023-10-13T07:27:54;99085.84;;;12.25;53.20
43814;BME280;29669;55.706;37.656;2023-10-13T07:30:24;99104.78;;;12.13;53.52
43814;BME280;29669;55.706;37.656;2023-10-13T07:32:54;99104.88;;;12.26;53.82
43814;BME280;29669;55.706;37.656;2023-10-13T07:35:27;99119.34;;;12.35;53.40
43814;BME280;29669;55.706;37.656;2023-10-13T07:37:59;99115.31;;;12.32;52.96
43814;BME280;29669;55.706;37.656;2023-10-13T07:40:28;99115.91;;;12.28;52.47
43814;BME280;29669;55.706;37.656;2023-10-13T07:42:56;99114.16;;;12.35;52.43
43814;BME280;29669;55.706;37.656;2023-10-13T07:45:28;99117.16;;;12.39;52.28
43814;BME280;29669;55.706;37.656;2023-10-13T07:48:07;99133.59;;;12.39;52.26
43814;BME280;29669;55.706;37.656;2023-10-13T07:50:58;99130.91;;;12.26;52.27
43814;BME280;29669;55.706;37.656;2023-10-13T07:53:30;99126.28;;;12.00;51.68
43814;BME280;29669;55.706;37.656;2023-10-13T07:56:02;99132.16;;;11.88;52.01
43814;BME280;29669;55.706;37.656;2023-10-13T07:58:33;99133.97;;;11.87;52.27
43814;BME280;29669;55.706;37.656;2023-10-13T08:01:00;99141.13;;;11.85;52.55
43814;BME280;29669;55.706;37.656;2023-10-13T08:03:35;99144.78;;;11.91;52.43
43814;BME280;29669;55.706;37.656;2023-10-13T08:06:16;99154.69;;;12.02;52.24
43814;BME280;29669;55.706;37.656;2023-10-13T08:08:47;99175.50;;;12.23;52.09
43814;BME280;29669;55.706;37.656;2023-10-13T08:11:18;99174.34;;;12.32;51.73
43814;BME280;29669;55.706;37.656;2023-10-13T08:13:59;99170.56;;;12.28;51.53
43814;BME280;29669;55.706;37.656;2023-10-13T08:16:42;99177.47;;;12.21;51.65
43814;BME280;29669;55.706;37.656;2023-10-13T08:19:15;99182.69;;;12.21;51.53
43814;BME280;29669;55.706;37.656;2023-10-13T08:21:46;99186.41;;;12.12;51.50
43814;BME280;29669;55.706;37.656;2023-10-13T08:24:19;99185.97;;;12.08;51.47
43814;BME280;29669;55.706;37.656;2023-10-13T08:26:56;99177.97;;;12.10;51.10
43814;BME280;29669;55.706;37.656;2023-10-13T08:29:24;99213.84;;;12.14;50.68
43814;BME280;29669;55.706;37.656;2023-10-13T08:31:57;99205.03;;;12.15;50.36
43814;BME280;29669;55.706;37.656;2023-10-13T08:34:32;99221.34;;;12.24;50.19
43814;BME280;29669;55.706;37.656;2023-10-13T08:37:06;99221.38;;;12.30;49.58
43814;BME280;29669;55.706;37.656;2023-10-13T08:39:58;99212.97;;;12.28;48.79
43814;BME280;29669;55.706;37.656;2023-10-13T08:42:50;99217.00;;;12.31;48.79
43814;BME280;29669;55.706;37.656;2023-10-13T08:45:38;99248.47;;;12.36;48.49
43814;BME280;29669;55.706;37.656;2023-10-13T08:48:07;99229.00;;;12.32;48.53
43814;BME280;29669;55.706;37.656;2023-10-13T08:50:47;99240.09;;;12.41;48.34
43814;BME280;29669;55.706;37.656;2023-10-13T08:53:26;99229.47;;;12.63;48.12
43814;BME280;29669;55.706;37.656;2023-10-13T08:58:45;99247.66;;;12.84;47.23
43814;BME280;29669;55.706;37.656;2023-10-13T09:01:34;99235.00;;;12.81;47.24
43814;BME280;29669;55.706;37.656;2023-10-13T09:04:27;99253.19;;;13.02;47.97
43814;BME280;29669;55.706;37.656;2023-10-13T09:07:03;99254.09;;;13.09;47.12
43814;BME280;29669;55.706;37.656;2023-10-13T09:12:30;99248.84;;;12.82;46.74
43814;BME280;29669;55.706;37.656;2023-10-13T09:15:09;99257.81;;;12.79;46.66
43814;BME280;29669;55.706;37.656;2023-10-13T09:17:47;99261.53;;;12.91;46.45
43814;BME280;29669;55.706;37.656;2023-10-13T09:20:35;99272.16;;;13.17;46.48
43814;BME280;29669;55.706;37.656;2023-10-13T09:23:11;99267.97;;;13.23;46.03
43814;BME280;29669;55.706;37.656;2023-10-13T09:25:40;99271.59;;;13.22;46.28
43814;BME280;29669;55.706;37.656;2023-10-13T09:28:39;99270.56;;;13.16;46.31
43814;BME280;29669;55.706;37.656;2023-10-13T09:31:09;99281.81;;;13.23;46.75
43814;BME280;29669;55.706;37.656;2023-10-13T09:33:38;99284.63;;;13.22;46.55
43814;BME280;29669;55.706;37.656;2023-10-13T09:36:17;99273.03;;;13.31;46.38
43814;BME280;29669;55.706;37.656;2023-10-13T09:38:45;99281.09;;;13.36;46.07
43814;BME280;29669;55.706;37.656;2023-10-13T09:41:29;99295.19;;;13.42;46.15
43814;BME280;29669;55.706;37.656;2023-10-13T09:44:00;99312.28;;;13.51;46.01
43814;BME280;29669;55.706;37.656;2023-10-13T09:46:28;99328.28;;;13.48;45.66
43814;BME280;29669;55.706;37.656;2023-10-13T09:49:12;99309.81;;;13.43;45.30
43814;BME280;29669;55.706;37.656;2023-10-13T09:51:52;99305.22;;;13.45;44.97
43814;BME280;29669;55.706;37.656;2023-10-13T09:54:34;99317.75;;;13.69;45.39
43814;BME280;29669;55.706;37.656;2023-10-13T09:57:11;99310.25;;;13.87;44.96
43814;BME280;29669;55.706;37.656;2023-10-13T09:59:59;99326.38;;;14.10;45.08
43814;BME280;29669;55.706;37.656;2023-10-13T10:02:38;99327.66;;;14.27;44.31
43814;BME280;29669;55.706;37.656;2023-10-13T10:05:11;99320.56;;;14.14;44.23
43814;BME280;29669;55.706;37.656;2023-10-13T10:08:02;99331.41;;;14.11;43.71
43814;BME280;29669;55.706;37.656;2023-10-13T10:10:56;99335.66;;;14.19;43.32
43814;BME280;29669;55.706;37.656;2023-10-13T10:16:39;99339.31;;;14.31;43.38
43814;BME280;29669;55.706;37.656;2023-10-13T10:19:14;99337.75;;;14.43;43.45
43814;BME280;29669;55.706;37.656;2023-10-13T10:21:42;99354.97;;;14.31;43.27
43814;BME280;29669;55.706;37.656;2023-10-13T10:24:21;99361.41;;;13.88;43.42
43814;BME280;29669;55.706;37.656;2023-10-13T10:26:57;99358.16;;;13.45;44.02
43814;BME280;29669;55.706;37.656;2023-10-13T10:29:25;99364.03;;;13.26;44.49
43814;BME280;29669;55.706;37.656;2023-10-13T10:31:52;99359.38;;;13.21;45.04
43814;BME280;29669;55.706;37.656;2023-10-13T10:34:20;99370.44;;;13.23;45.13
43814;BME280;29669;55.706;37.656;2023-10-13T10:37:00;99375.16;;;13.13;45.27
43814;BME280;29669;55.706;37.656;2023-10-13T10:39:35;99373.16;;;13.15;45.12
43814;BME280;29669;55.706;37.656;2023-10-13T10:42:24;99374.31;;;13.06;45.34
43814;BME280;29669;55.706;37.656;2023-10-13T10:44:56;99375.13;;;13.07;45.31
43814;BME280;29669;55.706;37.656;2023-10-13T10:47:33;99372.81;;;12.97;44.99
43814;BME280;29669;55.706;37.656;2023-10-13T10:50:06;99385.59;;;12.92;44.52
43814;BME280;29669;55.706;37.656;2023-10-13T10:52:54;99389.56;;;12.88;44.34
43814;BME280;29669;55.706;37.656;2023-10-13T10:55:24;99390.19;;;12.90;44.50
43814;BME280;29669;55.706;37.656;2023-10-13T10:58:02;99391.84;;;12.98;44.33
43814;BME280;29669;55.706;37.656;2023-10-13T11:00:33;99401.47;;;12.97;44.24
43814;BME280;29669;55.706;37.656;2023-10-13T11:03:14;99405.50;;;13.00;44.18
43814;BME280;29669;55.706;37.656;2023-10-13T11:05:46;99400.28;;;13.00;44.18
43814;BME280;29669;55.706;37.656;2023-10-13T11:08:24;99393.56;;;13.05;44.06
43814;BME280;29669;55.706;37.656;2023-10-13T11:10:59;99420.41;;;13.06;43.96
43814;BME280;29669;55.706;37.656;2023-10-13T11:13:43;99416.00;;;13.06;44.05
43814;BME280;29669;55.706;37.656;2023-10-13T11:16:47;99422.84;;;13.07;43.75
43814;BME280;29669;55.706;37.656;2023-10-13T11:19:18;99433.34;;;12.99;43.62
43814;BME280;29669;55.706;37.656;2023-10-13T11:21:53;99445.13;;;12.95;43.56
43814;BME280;29669;55.706;37.656;2023-10-13T11:24:24;99430.75;;;12.99;43.92
43814;BME280;29669;55.706;37.656;2023-10-13T11:26:52;99424.00;;;13.05;43.94
43814;BME280;29669;55.706;37.656;2023-10-13T11:29:31;99440.50;;;13.12;43.60
43814;BME280;29669;55.706;37.656;2023-10-13T11:32:01;99439.31;;;13.14;43.63
43814;BME280;29669;55.706;37.656;2023-10-13T11:34:30;99438.31;;;13.15;43.49
43814;BME280;29669;55.706;37.656;2023-10-13T11:37:07;99442.56;;;13.16;43.43
43814;BME280;29669;55.706;37.656;2023-10-13T11:39:53;99437.34;;;13.16;43.62
43814;BME280;29669;55.706;37.656;2023-10-13T11:42:21;99447.78;;;13.16;43.65
43814;BME280;29669;55.706;37.656;2023-10-13T11:44:48;99441.38;;;13.19;43.56
43814;BME280;29669;55.706;37.656;2023-10-13T11:47:30;99447.38;;;13.19;43.50
43814;BME280;29669;55.706;37.656;2023-10-13T11:50:16;99452.59;;;13.19;43.51
43814;BME280;29669;55.706;37.656;2023-10-13T11:53:00;99460.22;;;13.21;43.44
43814;BME280;29669;55.706;37.656;2023-10-13T11:55:28;99458.22;;;13.23;43.13
43814;BME280;29669;55.706;37.656;2023-10-13T11:57:55;99455.47;;;13.25;42.86
43814;BME280;29669;55.706;37.656;2023-10-13T12:00:26;99465.06;;;13.24;42.90
43814;BME280;29669;55.706;37.656;2023-10-13T12:03:14;99460.69;;;13.25;42.88
43814;BME280;29669;55.706;37.656;2023-10-13T12:06:00;99445.66;;;13.27;42.74
43814;BME280;29669;55.706;37.656;2023-10-13T12:08:47;99463.91;;;13.27;42.91
43814;BME280;29669;55.706;37.656;2023-10-13T12:11:19;99459.28;;;13.29;42.92
43814;BME280;29669;55.706;37.656;2023-10-13T12:13:58;99463.53;;;13.30;42.80
43814;BME280;29669;55.706;37.656;2023-10-13T12:16:39;99467.56;;;13.32;42.57
43814;BME280;29669;55.706;37.656;2023-10-13T12:19:07;99462.34;;;13.32;42.87
43814;BME280;29669;55.706;37.656;2023-10-13T12:21:38;99450.72;;;13.35;42.61
43814;BME280;29669;55.706;37.656;2023-10-13T12:24:06;99463.41;;;13.38;42.54
43814;BME280;29669;55.706;37.656;2023-10-13T12:26:39;99462.22;;;13.68;42.53
43814;BME280;29669;55.706;37.656;2023-10-13T12:29:09;99468.09;;;14.04;41.84
43814;BME280;29669;55.706;37.656;2023-10-13T12:31:46;99465.50;;;14.38;41.43
43814;BME280;29669;55.706;37.656;2023-10-13T12:34:19;99477.00;;;14.63;40.75
43814;BME280;29669;55.706;37.656;2023-10-13T12:37:07;99475.63;;;14.67;40.22
43814;BME280;29669;55.706;37.656;2023-10-13T12:39:52;99470.44;;;14.74;40.22
43814;BME280;29669;55.706;37.656;2023-10-13T12:42:38;99475.91;;;14.92;39.87
43814;BME280;29669;55.706;37.656;2023-10-13T12:45:23;99473.34;;;15.12;39.88
43814;BME280;29669;55.706;37.656;2023-10-13T12:48:09;99473.97;;;15.40;39.50
43814;BME280;29669;55.706;37.656;2023-10-13T12:50:55;99476.00;;;15.51;39.11
43814;BME280;29669;55.706;37.656;2023-10-13T12:53:35;99474.59;;;15.42;38.76
43814;BME280;29669;55.706;37.656;2023-10-13T12:56:02;99479.84;;;15.42;38.94
43814;BME280;29669;55.706;37.656;2023-10-13T12:58:31;99489.09;;;15.51;38.63
43814;BME280;29669;55.706;37.656;2023-10-13T13:01:02;99488.09;;;15.65;38.54
43814;BME280;29669;55.706;37.656;2023-10-13T13:03:35;99487.88;;;15.66;38.38
43814;BME280;29669;55.706;37.656;2023-10-13T13:06:03;99485.88;;;15.68;38.30
43814;BME280;29669;55.706;37.656;2023-10-13T13:08:34;99501.38;;;15.70;38.47
43814;BME280;29669;55.706;37.656;2023-10-13T13:11:11;99504.38;;;15.73;38.64
43814;BME280;29669;55.706;37.656;2023-10-13T13:13:38;99492.69;;;15.82;38.52
43814;BME280;29669;55.706;37.656;2023-10-13T13:16:06;99504.78;;;15.96;38.30
43814;BME280;29669;55.706;37.656;2023-10-13T13:18:35;99502.13;;;16.10;38.40
43814;BME280;29669;55.706;37.656;2023-10-13T13:21:02;99509.78;;;16.18;38.17
43814;BME280;29669;55.706;37.656;2023-10-13T13:23:33;99524.50;;;16.12;38.04
43814;BME280;29669;55.706;37.656;2023-10-13T13:26:01;99531.75;;;15.97;37.97
43814;BME280;29669;55.706;37.656;2023-10-13T13:28:29;99510.41;;;15.93;38.33
43814;BME280;29669;55.706;37.656;2023-10-13T13:30:57;99519.03;;;16.14;38.24
43814;BME280;29669;55.706;37.656;2023-10-13T13:33:25;99510.75;;;16.23;38.04
43814;BME280;29669;55.706;37.656;2023-10-13T13:35:54;99520.00;;;16.32;37.79
43814;BME280;29669;55.706;37.656;2023-10-13T13:38:22;99519.78;;;16.40;37.85
43814;BME280;29669;55.706;37.656;2023-10-13T13:40:49;99525.78;;;16.60;37.37
43814;BME280;29669;55.706;37.656;2023-10-13T13:43:22;99534.09;;;16.44;37.06
43814;BME280;29669;55.706;37.656;2023-10-13T13:46:06;99517.66;;;16.05;37.62
43814;BME280;29669;55.706;37.656;2023-10-13T13:48:38;99534.56;;;15.50;38.53